sensor_id;sensor_type;location;lat;lon;timestamp;pressure;altitude;pressure_sealevel;temperature;humidity
47897;BME280;39629;51.400;5.494;2023-03-18T00:02:26;100637.50;;;11.05;100.00
47897;BME280;39629;51.400;5.494;2023-03-18T00:07:28;100636.53;;;11.14;100.00
47897;BME280;39629;51.400;5.494;2023-03-18T00:12:29;100639.19;;;11.09;100.00
47897;BME280;39629;51.400;5.494;2023-03-18T00:17:33;100644.44;;;11.12;100.00
47897;BME280;39629;51.400;5.494;2023-03-18T00:22:38;100644.44;;;11.12;100.00
47897;BME280;39629;51.400;5.494;2023-03-18T00:27:39;100635.63;;;11.13;100.00
47897;BME280;39629;51.400;5.494;2023-03-18T00:32:42;100640.94;;;11.12;100.00
47897;BME280;39629;51.400;5.494;2023-03-18T00:37:45;100650.63;;;11.10;100.00
47897;BME280;39629;51.400;5.494;2023-03-18T00:42:47;100677.78;;;11.13;100.00
47897;BME280;39629;51.400;5.494;2023-03-18T00:47:58;100686.53;;;11.17;100.00
47897;BME280;39629;51.400;5.494;2023-03-18T00:52:59;100686.47;;;11.23;100.00
47897;BME280;39629;51.400;5.494;2023-03-18T00:58:01;100690.06;;;11.14;100.00
47897;BME280;39629;51.400;5.494;2023-03-18T01:03:04;100690.97;;;11.10;100.00
47897;BME280;39629;51.400;5.494;2023-03-18T01:08:07;100686.72;;;10.92;100.00
47897;BME280;39629;51.400;5.494;2023-03-18T01:13:08;100685.91;;;10.78;100.00
47897;BME280;39629;51.400;5.494;2023-03-18T01:18:11;100664.88;;;10.71;100.00
47897;BME280;39629;51.400;5.494;2023-03-18T01:23:13;100668.41;;;10.67;100.00
47897;BME280;39629;51.400;5.494;2023-03-18T01:28:17;100665.81;;;10.63;100.00
47897;BME280;39629;51.400;5.494;2023-03-18T01:33:20;100660.56;;;10.60;100.00
47897;BME280;39629;51.400;5.494;2023-03-18T01:38:23;100654.44;;;10.56;100.00
47897;BME280;39629;51.400;5.494;2023-03-18T01:43:27;100650.06;;;10.53;100.00
47897;BME280;39629;51.400;5.494;2023-03-18T01:48:36;100657.13;;;10.48;100.00
47897;BME280;39629;51.400;5.494;2023-03-18T01:53:44;100656.28;;;10.43;100.00
47897;BME280;39629;51.400;5.494;2023-03-18T01:58:50;100661.53;;;10.45;100.00
47897;BME280;39629;51.400;5.494;2023-03-18T02:03:54;100659.78;;;10.42;100.00
47897;BME280;39629;51.400;5.494;2023-03-18T02:08:57;100666.81;;;10.40;100.00
47897;BME280;39629;51.400;5.494;2023-03-18T02:13:59;100671.19;;;10.44;100.00
47897;BME280;39629;51.400;5.494;2023-03-18T02:19:11;100670.31;;;10.39;100.00
47897;BME280;39629;51.400;5.494;2023-03-18T02:24:23;100675.59;;;10.40;100.00
47897;BME280;39629;51.400;5.494;2023-03-18T02:29:28;100669.47;;;10.37;100.00
47897;BME280;39629;51.400;5.494;2023-03-18T02:34:37;100675.63;;;10.31;100.00
47897;BME280;39629;51.400;5.494;2023-03-18T02:39:40;100684.38;;;10.33;100.00
47897;BME280;39629;51.400;5.494;2023-03-18T02:44:44;100688.78;;;10.33;100.00
47897;BME280;39629;51.400;5.494;2023-03-18T02:50:10;100697.56;;;10.29;100.00
47897;BME280;39629;51.400;5.494;2023-03-18T02:55:12;100701.03;;;10.35;100.00
47897;BME280;39629;51.400;5.494;2023-03-18T03:00:16;100692.28;;;10.33;100.00
47897;BME280;39629;51.400;5.494;2023-03-18T03:05:18;100694.91;;;10.35;100.00
47897;BME280;39629;51.400;5.494;2023-03-18T03:10:20;100699.28;;;10.30;100.00
47897;BME280;39629;51.400;5.494;2023-03-18T03:15:23;100706.31;;;10.31;100.00
47897;BME280;39629;51.400;5.494;2023-03-18T03:20:31;100704.53;;;10.31;100.00
47897;BME280;39629;51.400;5.494;2023-03-18T03:25:35;100706.31;;;10.31;100.00
47897;BME280;39629;51.400;5.494;2023-03-18T03:30:38;100708.94;;;10.29;100.00
47897;BME280;39629;51.400;5.494;2023-03-18T03:35:41;100704.53;;;10.31;100.00
47897;BME280;39629;51.400;5.494;2023-03-18T03:40:43;100714.22;;;10.28;100.00
47897;BME280;39629;51.400;5.494;2023-03-18T03:45:47;100723.88;;;10.19;100.00
47897;BME280;39629;51.400;5.494;2023-03-18T03:50:49;100715.97;;;10.24;100.00
47897;BME280;39629;51.400;5.494;2023-03-18T03:55:51;100728.28;;;10.19;100.00
47897;BME280;39629;51.400;5.494;2023-03-18T04:00:54;100730.00;;;10.20;100.00
47897;BME280;39629;51.400;5.494;2023-03-18T04:05:56;100742.31;;;10.16;100.00
47897;BME280;39629;51.400;5.494;2023-03-18T04:11:01;100740.56;;;10.17;100.00
47897;BME280;39629;51.400;5.494;2023-03-18T04:16:06;100739.66;;;10.19;100.00
47897;BME280;39629;51.400;5.494;2023-03-18T04:21:08;100746.66;;;10.17;100.00
47897;BME280;39629;51.400;5.494;2023-03-18T04:26:18;100747.59;;;10.15;100.00
47897;BME280;39629;51.400;5.494;2023-03-18T04:31:22;100754.59;;;10.19;100.00
47897;BME280;39629;51.400;5.494;2023-03-18T04:36:23;100749.31;;;10.14;100.00
47897;BME280;39629;51.400;5.494;2023-03-18T04:41:27;100757.22;;;10.13;100.00
47897;BME280;39629;51.400;5.494;2023-03-18T04:46:33;100759.84;;;10.10;100.00
47897;BME280;39629;51.400;5.494;2023-03-18T04:51:35;100761.63;;;10.11;100.00
47897;BME280;39629;51.400;5.494;2023-03-18T04:56:39;100756.34;;;10.08;100.00
47897;BME280;39629;51.400;5.494;2023-03-18T05:01:42;100771.25;;;10.10;100.00
47897;BME280;39629;51.400;5.494;2023-03-18T05:06:44;100774.75;;;10.09;100.00
47897;BME280;39629;51.400;5.494;2023-03-18T05:11:48;100776.50;;;10.10;100.00
47897;BME280;39629;51.400;5.494;2023-03-18T05:17:02;100771.25;;;10.07;100.00
47897;BME280;39629;51.400;5.494;2023-03-18T05:22:07;100776.53;;;9.95;100.00
47897;BME280;39629;51.400;5.494;2023-03-18T05:27:10;100773.03;;;9.96;100.00
47897;BME280;39629;51.400;5.494;2023-03-18T05:32:17;100767.78;;;9.80;100.00
47897;BME280;39629;51.400;5.494;2023-03-18T05:37:23;100767.78;;;9.74;100.00
47897;BME280;39629;51.400;5.494;2023-03-18T05:42:33;100780.06;;;9.60;100.00
47897;BME280;39629;51.400;5.494;2023-03-18T05:47:36;100788.78;;;9.49;100.00
47897;BME280;39629;51.400;5.494;2023-03-18T05:52:45;100801.94;;;9.39;100.00
47897;BME280;39629;51.400;5.494;2023-03-18T05:57:53;100794.94;;;9.34;100.00
47897;BME280;39629;51.400;5.494;2023-03-18T06:02:58;100794.03;;;9.34;100.00
47897;BME280;39629;51.400;5.494;2023-03-18T06:08:00;100806.31;;;9.47;100.00
47897;BME280;39629;51.400;5.494;2023-03-18T06:13:02;100794.06;;;9.43;100.00
47897;BME280;39629;51.400;5.494;2023-03-18T06:18:05;100792.31;;;9.33;100.00
47897;BME280;39629;51.400;5.494;2023-03-18T06:23:07;100800.16;;;9.30;100.00
47897;BME280;39629;51.400;5.494;2023-03-18T06:28:09;100806.28;;;9.23;100.00
47897;BME280;39629;51.400;5.494;2023-03-18T06:33:13;100815.03;;;9.28;100.00
47897;BME280;39629;51.400;5.494;2023-03-18T06:38:16;100831.66;;;9.28;100.00
47897;BME280;39629;51.400;5.494;2023-03-18T06:43:17;100823.78;;;9.31;100.00
47897;BME280;39629;51.400;5.494;2023-03-18T06:48:20;100820.31;;;9.37;100.00
47897;BME280;39629;51.400;5.494;2023-03-18T06:53:22;100826.47;;;9.51;100.00
47897;BME280;39629;51.400;5.494;2023-03-18T06:58:25;100835.22;;;9.64;100.00
47897;BME280;39629;51.400;5.494;2023-03-18T07:03:35;100836.13;;;9.86;100.00
47897;BME280;39629;51.400;5.494;2023-03-18T07:08:39;100843.13;;;10.06;100.00
47897;BME280;39629;51.400;5.494;2023-03-18T07:13:41;100837.81;;;10.32;100.00
47897;BME280;39629;51.400;5.494;2023-03-18T07:18:52;100844.78;;;10.58;100.00
47897;BME280;39629;51.400;5.494;2023-03-18T07:23:54;100849.94;;;10.94;100.00
47897;BME280;39629;51.400;5.494;2023-03-18T07:28:58;100859.53;;;11.16;100.00
47897;BME280;39629;51.400;5.494;2023-03-18T07:34:01;100850.47;;;11.61;100.00
47897;BME280;39629;51.400;5.494;2023-03-18T07:39:05;100861.94;;;11.50;100.00
47897;BME280;39629;51.400;5.494;2023-03-18T07:44:07;100863.34;;;12.01;100.00
47897;BME280;39629;51.400;5.494;2023-03-18T07:49:10;100870.47;;;11.92;100.00
47897;BME280;39629;51.400;5.494;2023-03-18T07:54:11;100875.69;;;11.96;100.00
47897;BME280;39629;51.400;5.494;2023-03-18T07:59:13;100866.84;;;12.03;100.00
47897;BME280;39629;51.400;5.494;2023-03-18T08:04:17;100876.78;;;12.71;100.00
47897;BME280;39629;51.400;5.494;2023-03-18T08:09:18;100859.50;;;13.15;100.00
47897;BME280;39629;51.400;5.494;2023-03-18T08:14:20;100851.38;;;13.31;100.00
47897;BME280;39629;51.400;5.494;2023-03-18T08:19:23;100854.31;;;13.70;100.00
47897;BME280;39629;51.400;5.494;2023-03-18T08:24:26;100853.22;;;13.85;100.00
47897;BME280;39629;51.400;5.494;2023-03-18T08:29:27;100868.66;;;14.12;100.00
47897;BME280;39629;51.400;5.494;2023-03-18T08:34:30;100861.31;;;14.27;100.00
47897;BME280;39629;51.400;5.494;2023-03-18T08:39:32;100867.88;;;15.01;100.00
47897;BME280;39629;51.400;5.494;2023-03-18T08:44:34;100876.09;;;14.40;100.00
47897;BME280;39629;51.400;5.494;2023-03-18T08:49:37;100875.09;;;14.47;100.00
47897;BME280;39629;51.400;5.494;2023-03-18T08:54:38;100882.00;;;14.56;100.00
47897;BME280;39629;51.400;5.494;2023-03-18T08:59:40;100876.63;;;15.05;100.00
47897;BME280;39629;51.400;5.494;2023-03-18T09:04:43;100883.88;;;14.96;100.00
47897;BME280;39629;51.400;5.494;2023-03-18T09:09:44;100885.13;;;15.22;100.00
47897;BME280;39629;51.400;5.494;2023-03-18T09:14:46;100891.72;;;16.55;100.00
47897;BME280;39629;51.400;5.494;2023-03-18T09:19:49;100887.09;;;16.27;100.00
47897;BME280;39629;51.400;5.494;2023-03-18T09:24:50;100896.84;;;15.90;100.00
47897;BME280;39629;51.400;5.494;2023-03-18T09:29:53;100876.78;;;15.80;100.00
47897;BME280;39629;51.400;5.494;2023-03-18T09:34:57;100882.69;;;15.91;100.00
47897;BME280;39629;51.400;5.494;2023-03-18T09:39:58;100885.56;;;16.18;100.00
47897;BME280;39629;51.400;5.494;2023-03-18T09:45:03;100889.94;;;16.55;100.00
47897;BME280;39629;51.400;5.494;2023-03-18T09:50:17;100884.78;;;16.82;100.00
47897;BME280;39629;51.400;5.494;2023-03-18T09:55:24;100882.25;;;16.44;100.00
47897;BME280;39629;51.400;5.494;2023-03-18T10:00:31;100877.84;;;17.08;100.00
47897;BME280;39629;51.400;5.494;2023-03-18T10:05:41;100886.09;;;16.98;100.00
47897;BME280;39629;51.400;5.494;2023-03-18T10:10:45;100880.97;;;17.22;100.00
47897;BME280;39629;51.400;5.494;2023-03-18T10:15:49;100872.75;;;17.88;100.00
47897;BME280;39629;51.400;5.494;2023-03-18T10:21:09;100881.66;;;18.14;100.00
47897;BME280;39629;51.400;5.494;2023-03-18T10:26:19;100879.72;;;18.19;100.00
47897;BME280;39629;51.400;5.494;2023-03-18T10:31:30;100871.81;;;18.43;100.00
47897;BME280;39629;51.400;5.494;2023-03-18T10:36:37;100861.31;;;18.38;100.00
47897;BME280;39629;51.400;5.494;2023-03-18T10:41:40;100856.91;;;18.62;100.00
47897;BME280;39629;51.400;5.494;2023-03-18T10:46:45;100874.63;;;18.88;100.00
47897;BME280;39629;51.400;5.494;2023-03-18T10:51:53;100870.31;;;17.80;100.00
47897;BME280;39629;51.400;5.494;2023-03-18T10:56:56;100868.59;;;18.06;100.00
47897;BME280;39629;51.400;5.494;2023-03-18T11:02:01;100885.31;;;17.83;100.00
47897;BME280;39629;51.400;5.494;2023-03-18T11:07:09;100889.41;;;17.07;100.00
47897;BME280;39629;51.400;5.494;2023-03-18T11:12:16;100873.81;;;17.24;100.00
47897;BME280;39629;51.400;5.494;2023-03-18T11:17:20;100878.09;;;16.98;100.00
47897;BME280;39629;51.400;5.494;2023-03-18T11:22:24;100891.34;;;17.00;100.00
47897;BME280;39629;51.400;5.494;2023-03-18T11:27:32;100892.75;;;16.82;100.00
47897;BME280;39629;51.400;5.494;2023-03-18T11:32:34;100897.59;;;16.33;100.00
47897;BME280;39629;51.400;5.494;2023-03-18T11:37:39;100903.63;;;16.40;100.00
47897;BME280;39629;51.400;5.494;2023-03-18T11:42:41;100905.66;;;16.63;100.00
47897;BME280;39629;51.400;5.494;2023-03-18T11:47:43;100905.28;;;16.77;100.00
47897;BME280;39629;51.400;5.494;2023-03-18T11:52:51;100908.72;;;16.47;100.00
47897;BME280;39629;51.400;5.494;2023-03-18T11:58:33;100903.41;;;16.11;100.00
47897;BME280;39629;51.400;5.494;2023-03-18T12:09:24;100903.63;;;16.04;100.00
47897;BME280;39629;51.400;5.494;2023-03-18T12:14:35;100894.84;;;16.00;100.00
47897;BME280;39629;51.400;5.494;2023-03-18T12:19:49;100883.09;;;15.74;100.00
47897;BME280;39629;51.400;5.494;2023-03-18T12:25:06;100889.25;;;15.75;100.00
47897;BME280;39629;51.400;5.494;2023-03-18T12:35:48;100887.91;;;15.94;100.00
47897;BME280;39629;51.400;5.494;2023-03-18T12:41:02;100893.22;;;15.57;100.00
47897;BME280;39629;51.400;5.494;2023-03-18T12:46:10;100899.03;;;15.33;100.00
47897;BME280;39629;51.400;5.494;2023-03-18T12:51:16;100900.66;;;14.95;100.00
47897;BME280;39629;51.400;5.494;2023-03-18T12:56:23;100897.34;;;14.86;100.00
47897;BME280;39629;51.400;5.494;2023-03-18T13:01:30;100899.63;;;15.03;100.00
47897;BME280;39629;51.400;5.494;2023-03-18T13:06:38;100897.47;;;14.29;100.00
47897;BME280;39629;51.400;5.494;2023-03-18T13:11:56;100887.69;;;14.35;100.00
47897;BME280;39629;51.400;5.494;2023-03-18T13:17:01;100891.06;;;14.43;100.00
47897;BME280;39629;51.400;5.494;2023-03-18T13:22:16;100888.34;;;14.46;100.00
47897;BME280;39629;51.400;5.494;2023-03-18T13:27:43;100882.19;;;14.92;100.00
47897;BME280;39629;51.400;5.494;2023-03-18T13:32:55;100877.78;;;14.91;100.00
47897;BME280;39629;51.400;5.494;2023-03-18T13:38:14;100879.88;;;15.60;100.00
47897;BME280;39629;51.400;5.494;2023-03-18T13:43:22;100882.38;;;15.67;100.00
47897;BME280;39629;51.400;5.494;2023-03-18T13:48:28;100886.06;;;15.20;100.00
47897;BME280;39629;51.400;5.494;2023-03-18T13:53:33;100891.31;;;14.77;100.00
47897;BME280;39629;51.400;5.494;2023-03-18T13:58:45;100883.16;;;14.87;100.00
47897;BME280;39629;51.400;5.494;2023-03-18T14:03:57;100879.50;;;15.75;100.00
47897;BME280;39629;51.400;5.494;2023-03-18T14:09:21;100877.13;;;16.02;100.00
47897;BME280;39629;51.400;5.494;2023-03-18T14:20:19;100850.84;;;16.26;100.00
47897;BME280;39629;51.400;5.494;2023-03-18T14:25:33;100844.94;;;15.80;100.00
47897;BME280;39629;51.400;5.494;2023-03-18T14:30:46;100841.88;;;15.59;100.00
47897;BME280;39629;51.400;5.494;2023-03-18T14:35:52;100838.25;;;15.63;100.00
47897;BME280;39629;51.400;5.494;2023-03-18T14:40:57;100839.28;;;15.94;100.00
47897;BME280;39629;51.400;5.494;2023-03-18T14:46:01;100837.63;;;16.23;100.00
47897;BME280;39629;51.400;5.494;2023-03-18T14:51:11;100826.00;;;16.28;100.00
47897;BME280;39629;51.400;5.494;2023-03-18T14:56:17;100825.38;;;16.17;100.00
47897;BME280;39629;51.400;5.494;2023-03-18T15:01:21;100815.00;;;16.44;100.00
47897;BME280;39629;51.400;5.494;2023-03-18T15:06:25;100814.75;;;16.83;100.00
47897;BME280;39629;51.400;5.494;2023-03-18T15:11:28;100802.63;;;16.74;100.00
47897;BME280;39629;51.400;5.494;2023-03-18T15:16:34;100805.31;;;16.73;100.00
47897;BME280;39629;51.400;5.494;2023-03-18T15:21:37;100798.72;;;16.56;100.00
47897;BME280;39629;51.400;5.494;2023-03-18T15:26:40;100809.28;;;16.58;100.00
47897;BME280;39629;51.400;5.494;2023-03-18T15:31:43;100806.06;;;16.12;100.00
47897;BME280;39629;51.400;5.494;2023-03-18T15:36:52;100805.38;;;16.40;100.00
47897;BME280;39629;51.400;5.494;2023-03-18T15:41:55;100810.00;;;16.31;100.00
47897;BME280;39629;51.400;5.494;2023-03-18T15:47:04;100801.13;;;16.32;100.00
47897;BME280;39629;51.400;5.494;2023-03-18T15:52:08;100804.38;;;16.09;100.00
47897;BME280;39629;51.400;5.494;2023-03-18T15:57:11;100794.78;;;16.04;100.00
47897;BME280;39629;51.400;5.494;2023-03-18T16:02:14;100798.53;;;15.96;100.00
47897;BME280;39629;51.400;5.494;2023-03-18T16:07:20;100793.22;;;15.96;100.00
47897;BME280;39629;51.400;5.494;2023-03-18T16:12:23;100781.94;;;15.87;100.00
47897;BME280;39629;51.400;5.494;2023-03-18T16:17:26;100785.03;;;15.70;100.00
47897;BME280;39629;51.400;5.494;2023-03-18T16:22:30;100784.72;;;15.46;100.00
47897;BME280;39629;51.400;5.494;2023-03-18T16:27:35;100782.22;;;15.40;100.00
47897;BME280;39629;51.400;5.494;2023-03-18T16:32:37;100783.44;;;15.25;100.00
47897;BME280;39629;51.400;5.494;2023-03-18T16:37:41;100785.28;;;15.21;100.00
47897;BME280;39629;51.400;5.494;2023-03-18T16:42:43;100795.56;;;14.94;100.00
47897;BME280;39629;51.400;5.494;2023-03-18T16:47:48;100784.16;;;14.92;100.00
47897;BME280;39629;51.400;5.494;2023-03-18T16:52:52;100786.22;;;14.78;100.00
47897;BME280;39629;51.400;5.494;2023-03-18T16:57:56;100792.75;;;14.60;100.00
47897;BME280;39629;51.400;5.494;2023-03-18T17:02:59;100792.03;;;14.52;100.00
47897;BME280;39629;51.400;5.494;2023-03-18T17:08:02;100795.75;;;14.43;100.00
47897;BME280;39629;51.400;5.494;2023-03-18T17:13:06;100788.91;;;14.33;100.00
47897;BME280;39629;51.400;5.494;2023-03-18T17:18:13;100798.94;;;14.13;100.00
47897;BME280;39629;51.400;5.494;2023-03-18T17:23:18;100804.50;;;14.00;100.00
47897;BME280;39629;51.400;5.494;2023-03-18T17:28:26;100797.69;;;13.83;100.00
47897;BME280;39629;51.400;5.494;2023-03-18T17:33:31;100796.28;;;13.62;100.00
47897;BME280;39629;51.400;5.494;2023-03-18T17:38:34;100804.44;;;13.45;100.00
47897;BME280;39629;51.400;5.494;2023-03-18T17:43:36;100808.97;;;13.38;100.00
47897;BME280;39629;51.400;5.494;2023-03-18T17:48:38;100808.34;;;13.21;100.00
47897;BME280;39629;51.400;5.494;2023-03-18T17:53:43;100820.84;;;13.09;100.00
47897;BME280;39629;51.400;5.494;2023-03-18T17:58:48;100823.63;;;12.97;100.00
47897;BME280;39629;51.400;5.494;2023-03-18T18:03:51;100831.03;;;12.69;100.00
47897;BME280;39629;51.400;5.494;2023-03-18T18:08:55;100839.97;;;12.57;100.00
47897;BME280;39629;51.400;5.494;2023-03-18T18:14:01;100850.59;;;12.51;100.00
47897;BME280;39629;51.400;5.494;2023-03-18T18:19:10;100855.06;;;12.44;100.00
47897;BME280;39629;51.400;5.494;2023-03-18T18:24:21;100864.72;;;12.42;100.00
47897;BME280;39629;51.400;5.494;2023-03-18T18:29:25;100860.34;;;12.39;100.00
47897;BME280;39629;51.400;5.494;2023-03-18T18:34:27;100846.34;;;12.34;100.00
47897;BME280;39629;51.400;5.494;2023-03-18T18:39:30;100857.03;;;12.19;100.00
47897;BME280;39629;51.400;5.494;2023-03-18T18:44:31;100855.44;;;12.01;100.00
47897;BME280;39629;51.400;5.494;2023-03-18T18:49:33;100850.25;;;11.90;100.00
47897;BME280;39629;51.400;5.494;2023-03-18T18:54:36;100848.44;;;11.95;100.00
47897;BME280;39629;51.400;5.494;2023-03-18T18:59:37;100852.88;;;11.91;100.00
47897;BME280;39629;51.400;5.494;2023-03-18T19:04:39;100859.97;;;11.83;100.00
47897;BME280;39629;51.400;5.494;2023-03-18T19:09:42;100869.75;;;11.69;100.00
47897;BME280;39629;51.400;5.494;2023-03-18T19:14:45;100889.03;;;11.72;100.00
47897;BME280;39629;51.400;5.494;2023-03-18T19:19:49;100929.41;;;11.81;100.00
47897;BME280;39629;51.400;5.494;2023-03-18T19:24:53;100938.84;;;12.14;100.00
47897;BME280;39629;51.400;5.494;2023-03-18T19:29:57;100936.34;;;11.97;100.00
47897;BME280;39629;51.400;5.494;2023-03-18T19:34:59;100951.38;;;11.80;100.00
47897;BME280;39629;51.400;5.494;2023-03-18T19:40:19;100944.41;;;11.71;100.00
47897;BME280;39629;51.400;5.494;2023-03-18T19:45:21;100949.75;;;11.60;100.00
47897;BME280;39629;51.400;5.494;2023-03-18T19:50:24;100942.78;;;11.45;100.00
47897;BME280;39629;51.400;5.494;2023-03-18T19:55:27;100949.88;;;11.34;100.00
47897;BME280;39629;51.400;5.494;2023-03-18T20:00:28;100950.81;;;11.20;100.00
47897;BME280;39629;51.400;5.494;2023-03-18T20:05:30;100948.16;;;11.23;100.00
47897;BME280;39629;51.400;5.494;2023-03-18T20:10:33;100942.88;;;11.27;100.00
47897;BME280;39629;51.400;5.494;2023-03-18T20:15:35;100951.72;;;11.16;100.00
47897;BME280;39629;51.400;5.494;2023-03-18T20:20:36;100958.69;;;11.23;100.00
47897;BME280;39629;51.400;5.494;2023-03-18T20:25:40;100953.38;;;11.36;100.00
47897;BME280;39629;51.400;5.494;2023-03-18T20:30:46;100960.47;;;11.24;100.00
47897;BME280;39629;51.400;5.494;2023-03-18T20:35:51;100955.13;;;11.35;100.00
47897;BME280;39629;51.400;5.494;2023-03-18T20:40:55;100953.34;;;11.42;100.00
47897;BME280;39629;51.400;5.494;2023-03-18T20:45:58;100940.22;;;11.36;100.00
47897;BME280;39629;51.400;5.494;2023-03-18T20:51:00;100941.13;;;11.29;100.00
47897;BME280;39629;51.400;5.494;2023-03-18T20:56:06;100932.38;;;11.22;100.00
47897;BME280;39629;51.400;5.494;2023-03-18T21:01:08;100935.91;;;11.10;100.00
47897;BME280;39629;51.400;5.494;2023-03-18T21:06:14;100934.19;;;11.00;100.00
47897;BME280;39629;51.400;5.494;2023-03-18T21:11:20;100946.50;;;10.92;100.00
47897;BME280;39629;51.400;5.494;2023-03-18T21:16:23;100939.47;;;10.90;100.00
47897;BME280;39629;51.400;5.494;2023-03-18T21:21:29;100936.88;;;10.72;100.00
47897;BME280;39629;51.400;5.494;2023-03-18T21:26:33;100930.72;;;10.71;100.00
47897;BME280;39629;51.400;5.494;2023-03-18T21:31:35;100926.34;;;10.67;100.00
47897;BME280;39629;51.400;5.494;2023-03-18T21:36:37;100917.56;;;10.67;100.00
47897;BME280;39629;51.400;5.494;2023-03-18T21:41:40;100911.44;;;10.62;100.00
47897;BME280;39629;51.400;5.494;2023-03-18T21:46:42;100914.06;;;10.62;100.00
47897;BME280;39629;51.400;5.494;2023-03-18T21:51:43;100907.97;;;10.56;100.00
47897;BME280;39629;51.400;5.494;2023-03-18T21:56:47;100947.44;;;10.43;100.00
47897;BME280;39629;51.400;5.494;2023-03-18T22:01:48;100960.56;;;10.49;100.00
47897;BME280;39629;51.400;5.494;2023-03-18T22:06:50;100962.31;;;10.71;100.00
47897;BME280;39629;51.400;5.494;2023-03-18T22:11:53;100960.56;;;10.75;100.00
47897;BME280;39629;51.400;5.494;2023-03-18T22:16:54;100960.53;;;10.78;100.00
47897;BME280;39629;51.400;5.494;2023-03-18T22:21:56;100953.53;;;10.74;100.00
47897;BME280;39629;51.400;5.494;2023-03-18T22:26:59;100960.53;;;10.77;100.00
47897;BME280;39629;51.400;5.494;2023-03-18T22:32:01;100950.91;;;10.80;100.00
47897;BME280;39629;51.400;5.494;2023-03-18T22:37:02;100948.25;;;10.89;100.00
47897;BME280;39629;51.400;5.494;2023-03-18T22:42:07;100943.88;;;10.90;100.00
47897;BME280;39629;51.400;5.494;2023-03-18T22:47:12;100953.53;;;10.62;100.00
47897;BME280;39629;51.400;5.494;2023-03-18T22:52:19;100948.31;;;10.32;100.00
47897;BME280;39629;51.400;5.494;2023-03-18T22:57:24;100944.81;;;10.19;100.00
47897;BME280;39629;51.400;5.494;2023-03-18T23:02:26;100941.28;;;10.08;100.00
47897;BME280;39629;51.400;5.494;2023-03-18T23:07:30;100945.66;;;9.98;100.00
47897;BME280;39629;51.400;5.494;2023-03-18T23:12:33;100949.16;;;9.82;100.00
47897;BME280;39629;51.400;5.494;2023-03-18T23:17:35;100942.13;;;9.76;100.00
47897;BME280;39629;51.400;5.494;2023-03-18T23:22:36;100935.97;;;9.73;100.00
47897;BME280;39629;51.400;5.494;2023-03-18T23:27:39;100944.72;;;9.70;100.00
47897;BME280;39629;51.400;5.494;2023-03-18T23:32:41;100941.22;;;9.68;100.00
47897;BME280;39629;51.400;5.494;2023-03-18T23:37:43;100923.69;;;9.64;100.00
47897;BME280;39629;51.400;5.494;2023-03-18T23:42:46;100924.56;;;9.64;100.00
47897;BME280;39629;51.400;5.494;2023-03-18T23:47:47;100928.06;;;9.59;100.00
47897;BME280;39629;51.400;5.494;2023-03-18T23:52:49;100925.44;;;9.62;100.00
47897;BME280;39629;51.400;5.494;2023-03-18T23:57:52;100930.69;;;9.60;100.00
